createdAt,value
2019-06-29T00:00:30.151Z,0
2019-06-29T00:03:28.624Z,0
2019-06-29T00:06:28.366Z,0
2019-06-29T00:09:29.063Z,0
2019-06-29T00:12:28.594Z,0
2019-06-29T00:15:28.604Z,0
2019-06-29T00:18:28.379Z,0
2019-06-29T00:21:28.840Z,0
2019-06-29T00:24:28.702Z,0
2019-06-29T00:27:28.305Z,0
2019-06-29T00:30:29.946Z,0
2019-06-29T00:33:28.560Z,0
2019-06-29T00:36:33.547Z,0
2019-06-29T00:39:28.015Z,0
2019-06-29T00:42:33.583Z,0
2019-06-29T00:45:28.487Z,0
2019-06-29T00:48:29.170Z,0
2019-06-29T00:51:28.613Z,0
2019-06-29T00:54:39.679Z,0
2019-06-29T00:57:28.340Z,0
2019-06-29T01:00:28.799Z,0
2019-06-29T01:03:28.188Z,0
2019-06-29T01:06:28.809Z,0
2019-06-29T01:09:28.510Z,0
2019-06-29T01:12:28.851Z,0
2019-06-29T01:15:28.297Z,0
2019-06-29T01:18:28.127Z,0
2019-06-29T01:21:28.712Z,0
2019-06-29T01:24:42.460Z,0
2019-06-29T01:27:33.406Z,0
2019-06-29T01:30:44.469Z,0
2019-06-29T01:33:33.460Z,0
2019-06-29T01:36:28.841Z,0
2019-06-29T01:39:28.943Z,0
2019-06-29T01:42:28.720Z,0
2019-06-29T01:45:28.157Z,0
2019-06-29T01:48:29.011Z,0
2019-06-29T01:51:28.883Z,0
2019-06-29T01:54:29.506Z,0
2019-06-29T01:57:29.999Z,0
2019-06-29T02:00:28.745Z,0
2019-06-29T02:03:28.307Z,0
2019-06-29T02:06:39.091Z,0
2019-06-29T02:09:28.454Z,0
2019-06-29T02:12:29.614Z,0
2019-06-29T02:15:28.317Z,0
2019-06-29T02:18:36.445Z,0
2019-06-29T02:21:28.870Z,0
2019-06-29T02:24:28.320Z,0
2019-06-29T02:27:28.888Z,0
2019-06-29T02:30:28.717Z,0
2019-06-29T02:33:28.113Z,0
2019-06-29T02:36:29.764Z,0
2019-06-29T02:39:28.292Z,0
2019-06-29T02:42:29.380Z,0
2019-06-29T02:45:29.103Z,0
2019-06-29T02:48:28.669Z,0
2019-06-29T02:51:28.282Z,0
2019-06-29T02:54:28.964Z,0
2019-06-29T02:57:28.417Z,0
2019-06-29T03:00:29.168Z,0
2019-06-29T03:03:29.036Z,0
2019-06-29T03:06:31.884Z,0
2019-06-29T03:09:33.726Z,0
2019-06-29T03:12:28.207Z,1
2019-06-29T03:15:28.806Z,1
2019-06-29T03:18:28.892Z,0
2019-06-29T03:21:33.580Z,2
2019-06-29T03:24:28.243Z,3
2019-06-29T03:27:28.711Z,0
2019-06-29T03:30:28.689Z,0
2019-06-29T03:33:28.143Z,0
2019-06-29T03:36:28.832Z,6
2019-06-29T03:39:29.552Z,0
2019-06-29T03:42:29.058Z,8
2019-06-29T03:45:28.664Z,0
2019-06-29T03:48:28.460Z,0
2019-06-29T03:51:29.010Z,0
2019-06-29T03:54:28.419Z,12
2019-06-29T03:57:29.021Z,2
2019-06-29T04:00:39.161Z,2
2019-06-29T04:03:36.184Z,15
2019-06-29T04:06:48.764Z,4
2019-06-29T04:10:15.506Z,6
2019-06-29T04:12:42.371Z,18
2019-06-29T04:15:46.425Z,19
2019-06-29T04:18:56.090Z,9
2019-06-29T04:21:35.338Z,10
2019-06-29T04:24:56.690Z,11
2019-06-29T04:27:42.067Z,27
2019-06-29T04:30:42.730Z,36
2019-06-29T04:33:41.786Z,33
2019-06-29T04:36:47.471Z,42
2019-06-29T04:39:44.878Z,68
2019-06-29T04:42:35.368Z,111
2019-06-29T04:45:29.611Z,122
2019-06-29T04:48:28.216Z,135
2019-06-29T04:51:30.217Z,152
2019-06-29T04:54:29.080Z,147
2019-06-29T04:57:29.292Z,151
2019-06-29T05:00:29.926Z,149
2019-06-29T05:03:33.774Z,147
2019-06-29T05:06:28.687Z,138
2019-06-29T05:09:33.452Z,170
2019-06-29T05:12:29.103Z,231
2019-06-29T05:15:28.984Z,283
2019-06-29T05:18:33.569Z,345
2019-06-29T05:21:28.202Z,329
2019-06-29T05:24:29.197Z,192
2019-06-29T05:27:30.003Z,312
2019-06-29T05:30:29.021Z,397
2019-06-29T05:33:28.982Z,334
2019-06-29T05:36:28.764Z,369
2019-06-29T05:39:28.682Z,231
2019-06-29T05:42:28.255Z,13
2019-06-29T05:45:28.930Z,0
2019-06-29T05:48:29.047Z,0
2019-06-29T05:51:28.950Z,0
2019-06-29T05:54:29.089Z,0
2019-06-29T05:57:31.151Z,0
2019-06-29T06:00:37.997Z,0
2019-06-29T06:03:30.844Z,0
2019-06-29T06:06:30.934Z,68
2019-06-29T06:09:29.858Z,16
2019-06-29T06:12:29.656Z,0
2019-06-29T06:15:29.678Z,0
2019-06-29T06:18:31.128Z,0
2019-06-29T06:21:31.007Z,0
2019-06-29T06:24:29.715Z,102
2019-06-29T06:27:47.144Z,0
2019-06-29T06:30:29.536Z,0
2019-06-29T06:33:40.501Z,0
2019-06-29T06:36:31.709Z,0
2019-06-29T06:39:29.506Z,0
2019-06-29T06:42:30.240Z,0
2019-06-29T06:45:28.970Z,0
2019-06-29T06:48:30.453Z,0
2019-06-29T06:51:29.179Z,0
2019-06-29T06:54:29.802Z,0
2019-06-29T06:57:29.670Z,102
2019-06-29T07:00:34.487Z,0
2019-06-29T07:03:29.193Z,49
2019-06-29T07:06:28.973Z,0
2019-06-29T07:09:29.729Z,0
2019-06-29T07:12:29.327Z,78
2019-06-29T07:15:40.180Z,78
2019-06-29T07:18:29.102Z,0
2019-06-29T07:21:30.224Z,87
2019-06-29T07:24:28.949Z,198
2019-06-29T07:27:30.612Z,0
2019-06-29T07:30:29.391Z,0
2019-06-29T07:33:34.112Z,0
2019-06-29T07:36:32.449Z,0
2019-06-29T07:39:29.196Z,0
2019-06-29T07:42:29.159Z,0
2019-06-29T07:45:37.105Z,0
2019-06-29T07:48:32.500Z,0
2019-06-29T07:51:39.670Z,0
2019-06-29T07:54:55.117Z,0
2019-06-29T07:57:30.530Z,0
2019-06-29T08:03:35.224Z,0
2019-06-29T08:06:35.229Z,0
2019-06-29T08:09:49.443Z,0
2019-06-29T08:12:29.553Z,0
2019-06-29T08:15:53.667Z,0
2019-06-29T08:18:46.968Z,0
2019-06-29T08:21:40.270Z,0
2019-06-29T08:24:30.379Z,0
2019-06-29T08:27:42.182Z,0
2019-06-29T08:30:53.391Z,0
2019-06-29T08:33:30.504Z,0
2019-06-29T08:36:29.168Z,0
2019-06-29T08:39:30.095Z,0
2019-06-29T08:42:29.874Z,0
2019-06-29T08:45:29.781Z,0
2019-06-29T08:48:40.572Z,0
2019-06-29T08:51:29.393Z,0
2019-06-29T08:54:29.308Z,0
2019-06-29T08:57:28.992Z,0
2019-06-29T09:00:39.662Z,391
2019-06-29T09:03:29.898Z,418
2019-06-29T09:06:29.551Z,343
2019-06-29T09:09:29.484Z,324
2019-06-29T09:12:29.190Z,321
2019-06-29T09:15:29.012Z,320
2019-06-29T09:18:34.008Z,324
2019-06-29T09:21:29.656Z,338
2019-06-29T09:24:29.961Z,338
2019-06-29T09:27:40.530Z,361
2019-06-29T09:30:31.969Z,366
2019-06-29T09:33:28.958Z,356
2019-06-29T09:36:34.689Z,368
2019-06-29T09:39:29.715Z,341
2019-06-29T09:42:31.310Z,360
2019-06-29T09:45:31.712Z,344
2019-06-29T09:48:31.650Z,326
2019-06-29T09:51:29.004Z,326
2019-06-29T09:54:31.319Z,332
2019-06-29T09:57:31.169Z,336
2019-06-29T10:00:31.844Z,347
2019-06-29T10:03:32.296Z,348
2019-06-29T10:06:34.408Z,387
2019-06-29T10:09:31.251Z,366
2019-06-29T10:12:28.859Z,376
2019-06-29T10:15:31.666Z,390
2019-06-29T10:18:35.200Z,392
2019-06-29T10:21:31.462Z,395
2019-06-29T10:24:34.572Z,399
2019-06-29T10:27:31.480Z,446
2019-06-29T10:30:34.635Z,428
2019-06-29T10:33:32.037Z,427
2019-06-29T10:36:29.149Z,397
2019-06-29T10:39:31.624Z,395
2019-06-29T10:42:32.428Z,318
2019-06-29T10:45:30.041Z,274
2019-06-29T10:48:31.772Z,202
2019-06-29T10:51:31.566Z,786
2019-06-29T10:54:31.942Z,480
2019-06-29T10:57:29.041Z,144
2019-06-29T11:00:41.425Z,126
2019-06-29T11:03:31.685Z,123
2019-06-29T11:06:31.251Z,132
2019-06-29T11:09:34.224Z,121
2019-06-29T11:12:29.317Z,130
2019-06-29T11:15:41.373Z,117
2019-06-29T11:18:31.969Z,127
2019-06-29T11:21:32.099Z,126
2019-06-29T11:24:42.206Z,125
2019-06-29T11:27:32.059Z,112
2019-06-29T11:30:46.328Z,121
2019-06-29T11:33:35.665Z,120
2019-06-29T11:36:34.034Z,119
2019-06-29T11:39:31.273Z,118
2019-06-29T11:42:34.746Z,118
2019-06-29T11:45:29.512Z,117
2019-06-29T11:48:29.119Z,104
2019-06-29T11:51:31.865Z,115
2019-06-29T11:54:31.948Z,114
2019-06-29T11:57:30.104Z,113
2019-06-29T12:00:46.622Z,112
2019-06-29T12:03:32.180Z,99
2019-06-29T12:06:34.669Z,110
2019-06-29T12:09:31.755Z,110
2019-06-29T12:12:31.753Z,98
2019-06-29T12:15:30.554Z,108
2019-06-29T12:18:29.317Z,108
2019-06-29T12:21:29.165Z,107
2019-06-29T12:24:30.275Z,95
2019-06-29T12:27:28.911Z,106
2019-06-29T12:30:30.154Z,94
2019-06-29T12:33:36.942Z,105
2019-06-29T12:36:32.461Z,93
2019-06-29T12:39:31.731Z,103
2019-06-29T12:42:31.493Z,92
2019-06-29T12:45:31.948Z,90
2019-06-29T12:48:31.405Z,90
2019-06-29T12:51:34.548Z,101
2019-06-29T12:54:31.745Z,89
2019-06-29T12:57:32.149Z,99
2019-06-29T13:00:29.088Z,98
2019-06-29T13:03:35.243Z,97
2019-06-29T13:06:38.880Z,86
2019-06-29T13:09:34.924Z,85
2019-06-29T13:12:29.593Z,83
2019-06-29T13:15:30.512Z,94
2019-06-29T13:18:30.145Z,81
2019-06-29T13:21:29.716Z,81
2019-06-29T13:24:34.674Z,81
2019-06-29T13:27:35.486Z,91
2019-06-29T13:30:30.826Z,91
2019-06-29T13:33:30.034Z,79
2019-06-29T13:36:29.834Z,78
2019-06-29T13:39:37.527Z,88
2019-06-29T13:42:29.150Z,87
2019-06-29T13:45:29.061Z,86
2019-06-29T13:48:30.481Z,86
2019-06-29T13:51:29.179Z,85
2019-06-29T13:54:28.739Z,73
2019-06-29T13:57:29.925Z,84
2019-06-29T14:00:29.909Z,72
2019-06-29T14:03:29.950Z,82
2019-06-29T14:06:29.632Z,81
2019-06-29T14:09:29.246Z,69
2019-06-29T14:12:29.089Z,79
2019-06-29T14:15:29.601Z,78
2019-06-29T14:18:29.299Z,65
2019-06-29T14:21:29.359Z,66
2019-06-29T14:24:31.712Z,76
2019-06-29T14:27:29.452Z,64
2019-06-29T14:30:32.741Z,74
2019-06-29T14:33:29.847Z,62
2019-06-29T14:36:29.385Z,72
2019-06-29T14:39:30.698Z,71
2019-06-29T14:42:29.559Z,59
2019-06-29T14:45:49.370Z,59
2019-06-29T14:49:04.899Z,59
2019-06-29T14:51:44.041Z,69
2019-06-29T14:54:35.418Z,57
2019-06-29T14:57:47.042Z,67
2019-06-29T15:00:57.909Z,54
2019-06-29T15:03:45.929Z,64
2019-06-29T15:06:39.545Z,63
2019-06-29T15:09:39.439Z,51
2019-06-29T15:12:53.723Z,61
2019-06-29T15:15:56.639Z,49
2019-06-29T15:18:38.857Z,59
2019-06-29T15:21:36.011Z,58
2019-06-29T15:24:50.025Z,57
2019-06-29T15:27:35.842Z,45
2019-06-29T15:30:29.579Z,55
2019-06-29T15:33:34.482Z,54
2019-06-29T15:36:31.343Z,41
2019-06-29T15:39:29.901Z,51
2019-06-29T15:42:29.467Z,50
2019-06-29T15:45:29.198Z,38
2019-06-29T15:48:28.916Z,47
2019-06-29T15:51:29.288Z,35
2019-06-29T15:54:29.649Z,45
2019-06-29T15:57:34.493Z,33
2019-06-29T16:00:30.260Z,43
2019-06-29T16:03:29.045Z,30
2019-06-29T16:06:31.728Z,41
2019-06-29T16:09:34.338Z,30
2019-06-29T16:12:29.512Z,41
2019-06-29T16:15:29.277Z,40
2019-06-29T16:18:29.069Z,40
2019-06-29T16:21:28.773Z,39
2019-06-29T16:24:34.472Z,38
2019-06-29T16:27:29.016Z,27
2019-06-29T16:30:34.766Z,26
2019-06-29T16:33:41.495Z,37
2019-06-29T16:36:29.372Z,37
2019-06-29T16:39:28.817Z,37
2019-06-29T16:42:29.421Z,36
2019-06-29T16:45:34.126Z,36
2019-06-29T16:48:29.010Z,36
2019-06-29T16:51:30.659Z,23
2019-06-29T16:54:29.093Z,35
2019-06-29T16:57:33.852Z,34
2019-06-29T17:00:43.128Z,22
2019-06-29T17:03:37.776Z,23
2019-06-29T17:06:30.637Z,23
2019-06-29T17:09:29.097Z,22
2019-06-29T17:12:28.841Z,21
2019-06-29T17:15:35.967Z,21
2019-06-29T17:18:29.576Z,32
2019-06-29T17:21:29.062Z,31
2019-06-29T17:24:30.372Z,31
2019-06-29T17:27:28.830Z,30
2019-06-29T17:30:29.676Z,19
2019-06-29T17:33:34.317Z,18
2019-06-29T17:36:29.390Z,29
2019-06-29T17:39:28.605Z,17
2019-06-29T17:42:31.824Z,17
2019-06-29T17:45:29.207Z,28
2019-06-29T17:48:28.843Z,27
2019-06-29T17:51:29.373Z,15
2019-06-29T17:54:28.532Z,26
2019-06-29T17:57:28.562Z,13
2019-06-29T18:00:34.080Z,13
2019-06-29T18:03:33.000Z,24
2019-06-29T18:06:30.479Z,13
2019-06-29T18:09:28.756Z,23
2019-06-29T18:12:28.683Z,12
2019-06-29T18:15:28.547Z,11
2019-06-29T18:18:29.817Z,10
2019-06-29T18:21:29.338Z,21
2019-06-29T18:24:29.146Z,20
2019-06-29T18:27:39.568Z,19
2019-06-29T18:30:33.994Z,8
2019-06-29T18:33:28.956Z,18
2019-06-29T18:36:33.977Z,6
2019-06-29T18:39:28.850Z,4
2019-06-29T18:42:30.429Z,5
2019-06-29T18:45:28.013Z,4
2019-06-29T18:48:28.959Z,14
2019-06-29T18:51:28.774Z,13
2019-06-29T18:54:28.274Z,0
2019-06-29T18:57:31.830Z,12
2019-06-29T19:00:28.908Z,11
2019-06-29T19:03:28.479Z,0
2019-06-29T19:12:54.046Z,8
2019-06-29T19:16:03.079Z,0
2019-06-29T19:21:55.144Z,6
2019-06-29T19:27:57.826Z,0
2019-06-29T19:33:50.007Z,0
2019-06-29T19:36:32.654Z,2
2019-06-29T19:39:28.346Z,0
2019-06-29T19:45:28.332Z,0
2019-06-29T19:48:38.940Z,0
2019-06-29T19:51:55.821Z,0
2019-06-29T19:54:28.979Z,0
2019-06-29T19:57:35.103Z,0
2019-06-29T20:02:05.657Z,0
2019-06-29T20:03:42.378Z,0
2019-06-29T20:06:34.194Z,0
2019-06-29T20:09:30.259Z,0
2019-06-29T20:15:39.877Z,0
2019-06-29T20:18:38.469Z,0
2019-06-29T20:21:33.661Z,0
2019-06-29T20:24:48.139Z,0
2019-06-29T20:27:34.963Z,0
2019-06-29T20:30:34.796Z,0
2019-06-29T20:33:28.409Z,0
2019-06-29T20:36:29.023Z,0
2019-06-29T20:39:28.662Z,0
2019-06-29T20:42:28.324Z,0
2019-06-29T20:45:29.190Z,0
2019-06-29T20:48:28.996Z,0
2019-06-29T20:51:29.069Z,0
2019-06-29T20:54:33.753Z,0
2019-06-29T20:57:36.710Z,0
2019-06-29T21:00:32.054Z,0
2019-06-29T21:03:29.087Z,0
2019-06-29T21:06:28.706Z,0
2019-06-29T21:09:28.299Z,0
2019-06-29T21:12:30.302Z,0
2019-06-29T21:15:28.900Z,0
2019-06-29T21:18:28.399Z,0
2019-06-29T21:21:34.227Z,0
2019-06-29T21:24:30.159Z,0
2019-06-29T21:27:28.939Z,0
2019-06-29T21:30:28.957Z,0
2019-06-29T21:33:29.250Z,0
2019-06-29T21:36:30.216Z,0
2019-06-29T21:39:33.777Z,0
2019-06-29T21:42:28.377Z,0
2019-06-29T21:45:28.981Z,0
2019-06-29T21:48:28.533Z,0
2019-06-29T21:51:33.138Z,0
2019-06-29T21:54:29.200Z,0
2019-06-29T21:57:28.960Z,0
2019-06-29T22:00:54.965Z,0
2019-06-29T22:03:31.732Z,0
2019-06-29T22:06:35.561Z,0
2019-06-29T22:09:34.341Z,0
2019-06-29T22:12:29.053Z,0
2019-06-29T22:15:28.484Z,0
2019-06-29T22:18:28.030Z,0
2019-06-29T22:21:30.332Z,0
2019-06-29T22:24:29.594Z,0
2019-06-29T22:27:28.436Z,0
2019-06-29T22:30:43.977Z,0
2019-06-29T22:33:28.917Z,0
2019-06-29T22:36:28.367Z,0
2019-06-29T22:39:29.011Z,0
2019-06-29T22:42:28.758Z,0
2019-06-29T22:45:28.924Z,0
2019-06-29T22:48:28.626Z,0
2019-06-29T22:51:33.264Z,0
2019-06-29T22:54:28.723Z,0
2019-06-29T22:57:33.342Z,0
2019-06-29T23:00:29.045Z,0
2019-06-29T23:03:28.814Z,0
2019-06-29T23:06:28.413Z,0
2019-06-29T23:09:28.928Z,0
2019-06-29T23:12:28.645Z,0
2019-06-29T23:15:33.303Z,0
2019-06-29T23:18:28.996Z,0
2019-06-29T23:21:28.589Z,0
2019-06-29T23:24:28.563Z,0
2019-06-29T23:27:28.219Z,0
2019-06-29T23:30:29.713Z,0
2019-06-29T23:33:48.958Z,0
2019-06-29T23:36:28.787Z,0
2019-06-29T23:39:34.576Z,0
2019-06-29T23:42:28.089Z,0
2019-06-29T23:45:28.679Z,0
2019-06-29T23:48:28.475Z,0
2019-06-29T23:51:29.010Z,0
2019-06-29T23:54:29.186Z,0
2019-06-29T23:57:28.812Z,0
